首页
METAR-TAF:

METAR-TAF

机场 :

L.F.韋德國際機場

百慕大, 百慕大

纬度: 32-22N, 经度: 064-41W, 海拔: 6米

当前天气观测

该预报发布于29分钟前的23:55 UTC
风速3节,风向东北
温度 21°C
湿度 73%
气压 1020 hPa
能见度10公里或以上
少量云层高于2800英尺
少量云层高于30000英尺

METAR: TXKF 302355Z 04003KT 9999 FEW028 FEW300 21/16 Q1020

时间: 21:24 (00:24 UTC)

预报

该预报发布于49分钟前的23:35 UTC
预报有效从31日的 00点(UTC)到 31日的 24点(UTC)
风速5节,风向多变
能见度10公里或以上
散云层高于1800英尺
多云层高于30000英尺
成为
从 31日的 13点(UTC)到 31日的 16点(UTC)
风速10节,风向南转西南

TAF: TXKF 302335Z 3100/3124 VRB05KT 9999 SCT018 BKN300 BECMG 3113/3116 21010KT

超过4000个机场的气象观测和天气预报(METAR&TAF报告)。

可查询的气象台以黄色和红色小点在地图上表示。

将鼠标移到小点上方,可查看气象台名称。

然后点击查看天气观测和预报。

如需切换地图:点击带黑十字的绿色按钮放大地图;点击带横线的绿色按钮缩小地图;或者点击绿色箭头查看邻近地区的地图。


METAR-TAF: